Duffau, Texas
Current Conditions -  °F | °C
As of 3:55 AM on Sunday 21 Dec 2014 (Local Time) from KSEP Reporting Station
Overcast Overcast  
Wind Chill: 43°   Ceiling: 1600
Heat Index: 46°   Visibility: 7mi
Dew Point: 42°   Wind: 7mph
Humidity: 85%   Direction: 170°S
Pressure: 30.11"   Gusts: NA
Location:  31.981°N, 98.033°W
Report Text: KSEP 210955Z AUTO 17006KT 7SM OVC016 08/06 A3011 RMK AO2 T00800056
Loading
Personal Weather Stations






























Interactive Weather Map New forecast layout! Learn more

10-Day Weather Forecast

Advertisements
Track Severe Weather on mobile